createdAt,value
2022-07-31T00:00:39.215Z,1.50
2022-07-31T00:01:42.505Z,2.00
2022-07-31T00:02:45.885Z,1.43
2022-07-31T00:03:49.453Z,2.00
2022-07-31T00:04:53.070Z,2.00
2022-07-31T00:05:56.566Z,1.37
2022-07-31T00:07:00.332Z,1.00
2022-07-31T00:08:03.844Z,1.43
2022-07-31T00:09:07.218Z,2.00
2022-07-31T00:10:11.848Z,1.50
2022-07-31T00:11:15.337Z,1.43
2022-07-31T00:12:18.926Z,1.57
2022-07-31T00:13:58.152Z,1.50
2022-07-31T00:14:26.930Z,2.50
2022-07-31T00:15:30.731Z,3.00
2022-07-31T00:16:34.017Z,2.50
2022-07-31T00:17:37.397Z,2.00
2022-07-31T00:18:40.684Z,2.00
2022-07-31T00:19:44.068Z,2.00
2022-07-31T00:20:47.630Z,2.43
2022-07-31T00:21:51.255Z,2.14
2022-07-31T00:22:54.844Z,1.43
2022-07-31T00:23:58.644Z,1.00
2022-07-31T00:25:02.296Z,1.43
2022-07-31T00:26:05.825Z,1.57
2022-07-31T00:27:09.413Z,1.50
2022-07-31T00:28:13.002Z,1.57
2022-07-31T00:29:16.400Z,1.43
2022-07-31T00:30:19.782Z,1.29
2022-07-31T00:31:23.059Z,1.43
2022-07-31T00:32:26.363Z,1.71
2022-07-31T00:33:29.933Z,1.00
2022-07-31T00:34:33.119Z,1.00
2022-07-31T00:35:36.606Z,1.00
2022-07-31T00:36:39.887Z,1.25
2022-07-31T00:37:43.193Z,1.00
2022-07-31T00:38:46.230Z,1.33
2022-07-31T00:39:49.438Z,2.00
2022-07-31T00:40:52.626Z,1.57
2022-07-31T00:41:56.110Z,1.00
2022-07-31T00:42:59.599Z,1.00
2022-07-31T00:44:02.796Z,1.00
2022-07-31T00:45:07.291Z,1.00
2022-07-31T00:46:14.257Z,1.50
2022-07-31T00:47:15.714Z,1.00
2022-07-31T00:48:19.496Z,0.29
2022-07-31T00:49:23.894Z,0.50
2022-07-31T00:50:27.035Z,1.00
2022-07-31T00:51:30.278Z,1.00
2022-07-31T00:52:33.761Z,1.00
2022-07-31T00:53:37.143Z,1.00
2022-07-31T00:54:40.423Z,1.00
2022-07-31T00:55:52.038Z,1.00
2022-07-31T00:56:47.926Z,1.00
2022-07-31T00:57:51.411Z,1.29
2022-07-31T00:58:55.205Z,1.00
2022-07-31T00:59:58.697Z,0.50
2022-07-31T01:01:02.130Z,0.86
2022-07-31T01:02:05.879Z,2.00
2022-07-31T01:03:09.480Z,1.50
2022-07-31T01:04:15.531Z,1.43
2022-07-31T01:05:17.471Z,1.75
2022-07-31T01:06:20.967Z,1.43
2022-07-31T01:07:24.554Z,1.00
2022-07-31T01:08:27.942Z,1.43
2022-07-31T01:09:31.415Z,1.57
2022-07-31T01:10:34.722Z,1.29
2022-07-31T01:11:38.097Z,1.29
2022-07-31T01:12:41.596Z,1.00
2022-07-31T01:13:44.899Z,1.43
2022-07-31T01:14:48.366Z,1.50
2022-07-31T01:15:51.828Z,0.71
2022-07-31T01:16:55.337Z,1.00
2022-07-31T01:17:58.932Z,1.00
2022-07-31T01:19:02.421Z,0.88
2022-07-31T01:20:06.012Z,1.00
2022-07-31T01:21:09.607Z,0.57
2022-07-31T01:22:33.384Z,0.50
2022-07-31T01:23:17.709Z,1.00
2022-07-31T01:24:21.207Z,1.00
2022-07-31T01:25:25.000Z,1.00
2022-07-31T01:26:28.276Z,1.00
2022-07-31T01:27:31.730Z,0.57
2022-07-31T01:28:36.176Z,0.13
2022-07-31T01:29:39.437Z,0.86
2022-07-31T01:30:42.746Z,1.43
2022-07-31T01:31:46.136Z,1.57
2022-07-31T01:32:49.731Z,1.00
2022-07-31T01:33:53.226Z,1.00
2022-07-31T01:34:56.700Z,1.00
2022-07-31T01:36:00.187Z,0.50
2022-07-31T01:37:03.863Z,0.71
2022-07-31T01:38:07.262Z,1.00
2022-07-31T01:39:10.660Z,1.33
2022-07-31T01:40:14.144Z,1.14
2022-07-31T01:41:17.742Z,1.14
2022-07-31T01:42:21.226Z,1.00
2022-07-31T01:43:25.134Z,1.00
2022-07-31T01:44:28.407Z,1.00
2022-07-31T01:45:31.702Z,1.00
2022-07-31T01:46:37.289Z,1.43
2022-07-31T01:47:39.302Z,1.87
2022-07-31T01:48:42.471Z,1.00
2022-07-31T01:49:45.750Z,1.00
2022-07-31T01:50:49.240Z,1.43
2022-07-31T01:51:52.691Z,1.14
2022-07-31T01:52:56.838Z,0.75
2022-07-31T01:53:59.991Z,1.29
2022-07-31T01:55:03.307Z,1.33
2022-07-31T01:56:06.595Z,0.00
2022-07-31T01:57:09.769Z,0.43
2022-07-31T01:58:13.150Z,1.00
2022-07-31T01:59:22.671Z,1.29
2022-07-31T02:00:33.636Z,1.50
2022-07-31T02:01:27.236Z,1.50
2022-07-31T02:02:29.515Z,1.00
2022-07-31T02:03:43.371Z,1.43
2022-07-31T02:04:37.155Z,2.00
2022-07-31T02:05:40.349Z,1.57
2022-07-31T02:06:43.525Z,1.43
2022-07-31T02:07:46.810Z,1.57
2022-07-31T02:08:49.850Z,1.00
2022-07-31T02:09:58.462Z,1.00
2022-07-31T02:10:57.212Z,1.00
2022-07-31T02:12:00.452Z,1.00
2022-07-31T02:13:04.765Z,0.50
2022-07-31T02:14:07.915Z,0.43
2022-07-31T02:15:11.125Z,0.71
2022-07-31T02:16:14.410Z,1.00
2022-07-31T02:17:22.601Z,1.00
2022-07-31T02:18:22.237Z,1.12
2022-07-31T02:19:25.501Z,1.57
2022-07-31T02:20:29.288Z,1.50
2022-07-31T02:21:32.673Z,1.00
2022-07-31T02:22:35.961Z,1.71
2022-07-31T02:23:39.352Z,1.57
2022-07-31T02:24:42.735Z,1.00
2022-07-31T02:25:46.020Z,1.86
2022-07-31T02:26:49.302Z,2.14
2022-07-31T02:27:57.709Z,1.43
2022-07-31T02:28:57.004Z,1.50
2022-07-31T02:30:00.488Z,1.00
2022-07-31T02:31:03.691Z,1.00
2022-07-31T02:32:06.851Z,1.43
2022-07-31T02:33:10.231Z,2.00
2022-07-31T02:34:13.472Z,2.00
2022-07-31T02:35:16.906Z,1.67
2022-07-31T02:36:20.292Z,1.00
2022-07-31T02:37:23.370Z,1.43
2022-07-31T02:38:26.509Z,1.14
2022-07-31T02:39:30.847Z,1.33
2022-07-31T02:40:34.208Z,1.12
2022-07-31T02:41:37.941Z,1.43
2022-07-31T02:42:41.250Z,2.00
2022-07-31T02:43:44.610Z,1.67
2022-07-31T02:44:47.793Z,0.83
2022-07-31T02:45:51.287Z,0.86
2022-07-31T02:46:54.684Z,1.57
2022-07-31T02:47:58.156Z,1.43
2022-07-31T02:49:01.711Z,2.29
2022-07-31T02:50:05.138Z,1.57
2022-07-31T02:51:08.633Z,1.00
2022-07-31T02:52:12.131Z,1.25
2022-07-31T02:53:15.611Z,2.00
2022-07-31T02:54:19.095Z,2.00
2022-07-31T02:55:22.684Z,1.86
2022-07-31T02:56:26.020Z,1.57
2022-07-31T02:57:30.689Z,1.50
2022-07-31T02:58:33.831Z,1.29
2022-07-31T02:59:37.254Z,1.00
2022-07-31T03:00:40.537Z,1.86
2022-07-31T03:01:43.593Z,2.00
2022-07-31T03:02:47.004Z,1.57
2022-07-31T03:03:50.503Z,1.43
2022-07-31T03:04:53.888Z,1.57
2022-07-31T03:05:57.472Z,1.00
2022-07-31T03:07:01.068Z,1.00
2022-07-31T03:08:04.559Z,1.00
2022-07-31T03:09:07.938Z,1.29
2022-07-31T03:10:11.528Z,1.57
2022-07-31T03:11:15.123Z,1.57
2022-07-31T03:12:18.508Z,2.00
2022-07-31T03:13:21.689Z,1.43
2022-07-31T03:14:25.176Z,1.57
2022-07-31T03:15:29.601Z,1.00
2022-07-31T03:16:32.871Z,1.43
2022-07-31T03:17:40.833Z,2.00
2022-07-31T03:18:40.467Z,2.00
2022-07-31T03:19:43.645Z,2.00
2022-07-31T03:20:46.830Z,1.00
2022-07-31T03:21:50.228Z,1.29
2022-07-31T03:22:53.685Z,1.00
2022-07-31T03:23:57.285Z,1.00
2022-07-31T03:25:00.706Z,1.00
2022-07-31T03:26:04.072Z,2.00
2022-07-31T03:27:07.461Z,1.86
2022-07-31T03:28:10.985Z,1.43
2022-07-31T03:29:42.517Z,1.43
2022-07-31T03:30:18.951Z,1.50
2022-07-31T03:31:22.644Z,1.43
2022-07-31T03:32:26.139Z,1.86
2022-07-31T03:33:29.311Z,1.00
2022-07-31T03:34:32.595Z,1.00
2022-07-31T03:35:40.739Z,1.00
2022-07-31T03:36:40.076Z,1.00
2022-07-31T03:37:43.271Z,1.43
2022-07-31T03:38:50.219Z,1.67
2022-07-31T03:39:51.169Z,1.00
2022-07-31T03:40:54.662Z,1.43
2022-07-31T03:41:58.145Z,2.00
2022-07-31T03:43:01.735Z,1.57
2022-07-31T03:44:05.139Z,1.00
2022-07-31T03:45:08.616Z,1.00
2022-07-31T03:46:12.080Z,1.43
2022-07-31T03:47:16.368Z,1.14
2022-07-31T03:48:19.795Z,1.12
2022-07-31T03:49:23.075Z,1.43
2022-07-31T03:50:26.468Z,1.00
2022-07-31T03:51:29.763Z,0.86
2022-07-31T03:52:32.932Z,1.57
2022-07-31T03:53:36.218Z,1.00
2022-07-31T03:54:39.400Z,1.43
2022-07-31T03:55:42.587Z,1.00
2022-07-31T03:56:45.867Z,1.00
2022-07-31T03:57:49.991Z,1.50
2022-07-31T03:58:53.162Z,1.57
2022-07-31T03:59:57.459Z,1.00
2022-07-31T04:01:01.052Z,1.00
2022-07-31T04:02:06.879Z,1.00
2022-07-31T04:03:10.489Z,1.00
2022-07-31T04:04:13.882Z,1.00
2022-07-31T04:05:17.387Z,1.67
2022-07-31T04:06:21.165Z,1.43
2022-07-31T04:07:24.614Z,1.57
2022-07-31T04:08:28.041Z,1.43
2022-07-31T04:09:31.222Z,2.00
2022-07-31T04:10:34.605Z,1.57
2022-07-31T04:11:38.216Z,1.00
2022-07-31T04:12:41.690Z,1.00
2022-07-31T04:13:45.170Z,1.33
2022-07-31T04:14:48.464Z,1.00
2022-07-31T04:15:52.147Z,1.00
2022-07-31T04:16:55.538Z,1.00
2022-07-31T04:17:59.028Z,1.00
2022-07-31T04:19:02.268Z,1.00
2022-07-31T04:20:05.785Z,1.00
2022-07-31T04:21:09.298Z,0.57
2022-07-31T04:22:12.672Z,0.43
2022-07-31T04:23:15.959Z,1.00
2022-07-31T04:24:20.066Z,1.00
2022-07-31T04:25:23.346Z,1.00
2022-07-31T04:26:26.589Z,1.00
2022-07-31T04:27:29.818Z,1.00
2022-07-31T04:28:33.199Z,1.00
2022-07-31T04:29:36.480Z,1.00
2022-07-31T04:30:39.649Z,1.00
2022-07-31T04:31:42.724Z,1.00
2022-07-31T04:32:45.923Z,1.00
2022-07-31T04:33:51.260Z,1.43
2022-07-31T04:34:53.631Z,1.50
2022-07-31T04:35:56.904Z,1.43
2022-07-31T04:37:00.300Z,1.71
2022-07-31T04:38:03.572Z,1.57
2022-07-31T04:39:06.755Z,1.43
2022-07-31T04:40:09.941Z,1.71
2022-07-31T04:41:13.124Z,1.57
2022-07-31T04:42:16.509Z,1.29
2022-07-31T04:43:19.892Z,1.00
2022-07-31T04:44:23.181Z,1.14
2022-07-31T04:45:26.356Z,1.00
2022-07-31T04:46:29.745Z,1.00
2022-07-31T04:47:33.032Z,1.00
2022-07-31T04:48:36.318Z,1.00
2022-07-31T04:49:40.322Z,1.00
2022-07-31T04:50:43.600Z,1.00
2022-07-31T04:51:46.856Z,1.00
2022-07-31T04:52:49.967Z,1.00
2022-07-31T04:53:53.455Z,1.00
2022-07-31T04:54:56.858Z,1.00
2022-07-31T04:56:01.249Z,1.00
2022-07-31T04:57:04.636Z,1.00
2022-07-31T04:58:07.920Z,1.57
2022-07-31T04:59:11.185Z,0.86
2022-07-31T05:00:14.392Z,1.43
2022-07-31T05:01:17.592Z,2.00
2022-07-31T05:02:20.858Z,1.57
2022-07-31T05:03:24.139Z,1.29
2022-07-31T05:04:27.320Z,1.86
2022-07-31T05:05:30.607Z,1.57
2022-07-31T05:06:33.893Z,1.00
2022-07-31T05:07:37.172Z,1.00
2022-07-31T05:08:40.261Z,1.86
2022-07-31T05:09:43.642Z,2.33
2022-07-31T05:10:46.928Z,1.00
2022-07-31T05:11:50.209Z,1.00
2022-07-31T05:12:53.486Z,1.00
2022-07-31T05:13:56.883Z,1.00
2022-07-31T05:15:00.167Z,1.14
2022-07-31T05:16:03.382Z,1.29
2022-07-31T05:17:06.429Z,1.29
2022-07-31T05:18:09.567Z,1.00
2022-07-31T05:19:14.646Z,1.17
2022-07-31T05:20:16.998Z,1.50
2022-07-31T05:21:20.276Z,1.57
2022-07-31T05:22:23.761Z,1.29
2022-07-31T05:23:27.560Z,1.00
2022-07-31T05:24:33.760Z,1.00
2022-07-31T05:25:35.369Z,1.00
2022-07-31T05:26:38.540Z,1.43
2022-07-31T05:27:41.926Z,1.57
2022-07-31T05:28:46.818Z,1.00
2022-07-31T05:29:49.422Z,1.00
2022-07-31T05:30:52.798Z,1.17
2022-07-31T05:31:59.635Z,1.00
2022-07-31T05:33:00.596Z,0.50
2022-07-31T05:34:03.887Z,0.86
2022-07-31T05:35:07.371Z,1.00
2022-07-31T05:36:10.967Z,1.00
2022-07-31T05:37:14.456Z,1.00
2022-07-31T05:38:18.168Z,1.43
2022-07-31T05:39:21.531Z,1.57
2022-07-31T05:40:25.025Z,1.00
2022-07-31T05:41:28.520Z,1.00
2022-07-31T05:42:31.661Z,1.43
2022-07-31T05:43:34.979Z,1.67
2022-07-31T05:44:38.059Z,1.29
2022-07-31T05:45:41.264Z,1.00
2022-07-31T05:46:44.420Z,1.33
2022-07-31T05:47:47.608Z,1.57
2022-07-31T05:48:53.978Z,1.00
2022-07-31T05:49:57.650Z,1.50
2022-07-31T05:51:05.277Z,1.43
2022-07-31T05:52:06.120Z,2.00
2022-07-31T05:53:09.759Z,1.50
2022-07-31T05:54:13.246Z,1.43
2022-07-31T05:55:16.735Z,1.57
2022-07-31T05:56:20.224Z,1.00
2022-07-31T05:57:33.546Z,1.00
2022-07-31T05:58:28.088Z,1.00
2022-07-31T05:59:31.510Z,1.43
2022-07-31T06:00:34.792Z,2.00
2022-07-31T06:01:38.356Z,1.86
2022-07-31T06:02:41.686Z,1.57
2022-07-31T06:03:52.479Z,1.43
2022-07-31T06:04:49.468Z,2.00
2022-07-31T06:05:52.855Z,1.67
2022-07-31T06:06:56.344Z,1.00
2022-07-31T06:08:00.771Z,1.00
2022-07-31T06:09:04.946Z,1.00
2022-07-31T06:10:08.968Z,1.00
2022-07-31T06:11:12.268Z,1.00
2022-07-31T06:12:15.599Z,1.00
2022-07-31T06:13:18.801Z,1.00
2022-07-31T06:14:23.561Z,1.50
2022-07-31T06:15:27.226Z,1.50
2022-07-31T06:16:30.572Z,0.86
2022-07-31T06:17:43.940Z,0.57
2022-07-31T06:18:38.266Z,1.00
2022-07-31T06:19:41.581Z,1.00
2022-07-31T06:20:44.771Z,1.43
2022-07-31T06:21:47.957Z,2.29
2022-07-31T06:22:52.400Z,2.00
2022-07-31T06:23:55.660Z,1.57
2022-07-31T06:24:59.839Z,1.50
2022-07-31T06:26:03.385Z,1.14
2022-07-31T06:27:07.040Z,1.00
2022-07-31T06:28:11.553Z,1.50
2022-07-31T06:29:14.904Z,1.50
2022-07-31T06:30:18.097Z,1.00
2022-07-31T06:31:21.211Z,1.14
2022-07-31T06:32:24.699Z,1.43
2022-07-31T06:33:37.878Z,2.00
2022-07-31T06:34:32.242Z,1.50
2022-07-31T06:35:35.483Z,1.00
2022-07-31T06:36:38.643Z,1.00
2022-07-31T06:37:42.142Z,1.43
2022-07-31T06:38:45.329Z,1.86
2022-07-31T06:39:54.812Z,1.00
2022-07-31T06:40:52.912Z,1.62
2022-07-31T06:41:56.398Z,1.57
2022-07-31T06:43:02.669Z,1.00
2022-07-31T06:44:04.498Z,1.50
2022-07-31T06:45:07.884Z,2.43
2022-07-31T06:46:11.274Z,2.00
2022-07-31T06:47:16.012Z,1.57
2022-07-31T06:48:19.480Z,1.12
2022-07-31T06:49:22.710Z,1.43
2022-07-31T06:50:26.370Z,2.00
2022-07-31T06:51:31.155Z,2.00
2022-07-31T06:52:33.948Z,2.00
2022-07-31T06:53:37.243Z,1.71
2022-07-31T06:54:40.527Z,1.71
2022-07-31T06:55:44.464Z,2.00
2022-07-31T06:56:48.112Z,2.00
2022-07-31T06:57:51.423Z,1.57
2022-07-31T06:58:54.579Z,1.43
2022-07-31T06:59:57.769Z,2.00
2022-07-31T07:01:01.084Z,2.00
2022-07-31T07:02:04.561Z,1.33
2022-07-31T07:03:07.997Z,1.37
2022-07-31T07:04:11.199Z,1.43
2022-07-31T07:05:14.490Z,2.00
2022-07-31T07:06:17.667Z,2.00
2022-07-31T07:07:20.963Z,2.00
2022-07-31T07:08:24.648Z,2.00
2022-07-31T07:09:28.030Z,2.00
2022-07-31T07:10:31.327Z,2.00
2022-07-31T07:11:34.903Z,2.00
2022-07-31T07:12:38.402Z,1.57
2022-07-31T07:13:45.144Z,1.43
2022-07-31T07:14:46.300Z,2.00
2022-07-31T07:15:49.690Z,1.57
2022-07-31T07:16:53.272Z,2.00
2022-07-31T07:17:56.761Z,2.43
2022-07-31T07:18:59.892Z,3.00
2022-07-31T07:20:03.330Z,2.67
2022-07-31T07:21:07.152Z,2.43
2022-07-31T07:22:10.743Z,2.75
2022-07-31T07:23:14.103Z,3.00
2022-07-31T07:24:17.696Z,3.00
2022-07-31T07:25:21.106Z,3.25
2022-07-31T07:26:24.469Z,3.00
2022-07-31T07:27:27.857Z,2.71
2022-07-31T07:28:31.535Z,3.00
2022-07-31T07:29:34.966Z,3.14
2022-07-31T07:30:38.119Z,3.57
2022-07-31T07:31:41.506Z,3.00
2022-07-31T07:32:44.670Z,3.14
2022-07-31T07:33:47.967Z,3.00
2022-07-31T07:35:00.050Z,3.00
2022-07-31T07:35:55.666Z,2.50
2022-07-31T07:36:59.159Z,2.43
2022-07-31T07:38:02.544Z,3.00
2022-07-31T07:39:06.742Z,3.00
2022-07-31T07:40:10.138Z,2.67
2022-07-31T07:41:13.623Z,2.00
2022-07-31T07:42:18.133Z,2.00
2022-07-31T07:43:21.624Z,2.86
2022-07-31T07:44:25.032Z,2.71
2022-07-31T07:45:28.399Z,2.71
2022-07-31T07:46:31.781Z,3.00
2022-07-31T07:47:53.807Z,3.00
2022-07-31T07:48:39.041Z,3.00
2022-07-31T07:49:42.112Z,2.67
2022-07-31T07:50:45.230Z,2.43
2022-07-31T07:51:58.744Z,3.00
2022-07-31T07:52:52.819Z,2.50
2022-07-31T07:53:56.307Z,3.29
2022-07-31T07:54:59.458Z,4.00
2022-07-31T07:56:02.573Z,4.50
2022-07-31T07:57:05.852Z,4.67
2022-07-31T07:58:11.835Z,4.33
2022-07-31T07:59:15.057Z,6.37
2022-07-31T08:00:17.658Z,6.50
2022-07-31T08:01:20.889Z,5.67
2022-07-31T08:02:24.116Z,6.00
2022-07-31T08:03:48.520Z,7.57
2022-07-31T08:04:31.612Z,7.50
2022-07-31T08:05:34.757Z,6.57
2022-07-31T08:06:37.871Z,5.57
2022-07-31T08:07:42.043Z,4.29
2022-07-31T08:08:45.246Z,3.12
2022-07-31T08:09:48.438Z,3.43
2022-07-31T08:10:51.628Z,4.00
2022-07-31T08:11:54.804Z,4.00
2022-07-31T08:12:57.869Z,4.43
2022-07-31T08:14:01.073Z,5.43
2022-07-31T08:15:04.235Z,6.86
2022-07-31T08:16:07.642Z,8.33
2022-07-31T08:17:11.019Z,9.00
2022-07-31T08:18:15.542Z,8.00
2022-07-31T08:19:18.819Z,6.14
2022-07-31T08:20:22.101Z,5.43
2022-07-31T08:21:25.387Z,5.57
2022-07-31T08:22:28.567Z,6.14
2022-07-31T08:23:31.868Z,7.57
2022-07-31T08:24:35.133Z,8.14
2022-07-31T08:25:38.225Z,7.43
2022-07-31T08:26:41.399Z,7.67
2022-07-31T08:27:44.575Z,6.67
2022-07-31T08:28:50.642Z,6.62
2022-07-31T08:29:53.300Z,7.50
2022-07-31T08:30:57.608Z,7.87
2022-07-31T08:32:01.071Z,7.14
2022-07-31T08:33:04.482Z,6.57
2022-07-31T08:34:07.746Z,6.86
2022-07-31T08:35:10.860Z,6.57
2022-07-31T08:36:13.890Z,7.67
2022-07-31T08:37:52.048Z,8.50
2022-07-31T08:38:21.316Z,6.50
2022-07-31T08:39:24.593Z,6.86
2022-07-31T08:40:27.982Z,7.57
2022-07-31T08:41:31.163Z,7.43
2022-07-31T08:42:34.550Z,9.86
2022-07-31T08:44:00.544Z,12.86
2022-07-31T08:44:42.241Z,12.75
2022-07-31T08:45:45.531Z,11.71
2022-07-31T08:46:48.624Z,11.00
2022-07-31T08:47:53.019Z,9.25
2022-07-31T08:48:56.571Z,7.57
2022-07-31T08:49:59.791Z,7.00
2022-07-31T08:51:03.076Z,6.57
2022-07-31T08:52:06.533Z,6.29
2022-07-31T08:53:09.976Z,6.43
2022-07-31T08:54:13.136Z,6.17
2022-07-31T08:55:55.245Z,4.57
2022-07-31T08:56:20.725Z,4.87
2022-07-31T08:57:24.213Z,5.43
2022-07-31T08:58:27.448Z,5.57
2022-07-31T08:59:30.577Z,5.00
2022-07-31T09:00:33.859Z,5.14
2022-07-31T09:01:37.148Z,4.57
2022-07-31T09:02:40.432Z,4.43
2022-07-31T09:03:43.617Z,5.86
2022-07-31T09:04:49.324Z,6.43
2022-07-31T09:05:51.080Z,6.00
2022-07-31T09:06:54.489Z,5.67
2022-07-31T09:07:58.082Z,5.86
2022-07-31T09:09:01.261Z,6.57
2022-07-31T09:10:04.550Z,5.00
2022-07-31T09:11:07.929Z,4.17
2022-07-31T09:12:11.289Z,4.00
2022-07-31T09:13:14.714Z,5.00
2022-07-31T09:14:18.197Z,4.57
2022-07-31T09:15:21.685Z,4.00
2022-07-31T09:16:24.964Z,4.00
2022-07-31T09:17:29.502Z,5.00
2022-07-31T09:18:32.868Z,5.57
2022-07-31T09:19:51.891Z,5.43
2022-07-31T09:20:40.542Z,5.12
2022-07-31T09:21:43.956Z,5.00
2022-07-31T09:22:47.131Z,5.14
2022-07-31T09:23:50.426Z,5.14
2022-07-31T09:24:53.701Z,5.50
2022-07-31T09:25:57.194Z,5.14
2022-07-31T09:27:00.882Z,4.43
2022-07-31T09:28:05.295Z,5.12
2022-07-31T09:29:08.578Z,5.57
2022-07-31T09:30:12.065Z,5.14
2022-07-31T09:31:15.561Z,4.43
2022-07-31T09:32:19.055Z,4.75
2022-07-31T09:33:22.537Z,5.43
2022-07-31T09:34:25.821Z,6.57
2022-07-31T09:35:30.303Z,4.00
2022-07-31T09:36:33.620Z,3.86
2022-07-31T09:37:37.104Z,4.43
2022-07-31T09:38:40.389Z,4.00
2022-07-31T09:39:51.873Z,4.29
2022-07-31T09:40:57.016Z,4.50
2022-07-31T09:42:00.209Z,3.50
2022-07-31T09:42:56.831Z,3.50
2022-07-31T09:43:59.986Z,4.00
2022-07-31T09:45:03.371Z,4.17
2022-07-31T09:46:07.063Z,4.50
2022-07-31T09:47:10.453Z,3.71
2022-07-31T09:48:18.285Z,3.00
2022-07-31T09:49:18.613Z,3.00
2022-07-31T09:50:25.246Z,3.86
2022-07-31T09:51:28.526Z,4.75
2022-07-31T09:52:31.819Z,4.33
2022-07-31T09:53:35.082Z,4.00
2022-07-31T09:54:38.457Z,4.00
2022-07-31T09:55:41.646Z,4.00
2022-07-31T09:56:44.921Z,4.43
2022-07-31T09:57:49.415Z,4.57
2022-07-31T09:58:52.621Z,4.00
2022-07-31T09:59:56.005Z,4.00
2022-07-31T10:00:59.222Z,4.00
2022-07-31T10:02:02.471Z,4.00
2022-07-31T10:03:05.657Z,3.57
2022-07-31T10:04:08.824Z,3.00
2022-07-31T10:05:12.016Z,3.00
2022-07-31T10:06:16.662Z,3.83
2022-07-31T10:07:32.585Z,3.50
2022-07-31T10:08:23.814Z,3.00
2022-07-31T10:09:27.100Z,3.00
2022-07-31T10:10:30.385Z,3.00
2022-07-31T10:11:33.583Z,3.50
2022-07-31T10:12:36.849Z,3.33
2022-07-31T10:13:42.354Z,4.00
2022-07-31T10:14:44.550Z,4.00
2022-07-31T10:15:47.927Z,4.00
2022-07-31T10:16:51.313Z,4.00
2022-07-31T10:17:54.407Z,4.00
2022-07-31T10:18:57.702Z,4.00
2022-07-31T10:20:01.060Z,4.00
2022-07-31T10:21:04.461Z,4.00
2022-07-31T10:22:07.838Z,4.00
2022-07-31T10:23:11.094Z,4.43
2022-07-31T10:24:14.415Z,4.57
2022-07-31T10:25:17.795Z,4.00
2022-07-31T10:26:21.291Z,4.00
2022-07-31T10:27:24.478Z,3.86
2022-07-31T10:28:27.876Z,3.57
2022-07-31T10:29:32.365Z,3.86
2022-07-31T10:30:35.648Z,5.00
2022-07-31T10:31:39.140Z,5.00
2022-07-31T10:32:42.351Z,4.57
2022-07-31T10:33:45.820Z,5.00
2022-07-31T10:34:49.108Z,4.00
2022-07-31T10:35:55.575Z,4.33
2022-07-31T10:36:56.788Z,4.75
2022-07-31T10:38:00.279Z,4.12
2022-07-31T10:39:03.730Z,3.43
2022-07-31T10:40:07.046Z,4.00
2022-07-31T10:41:10.441Z,4.43
2022-07-31T10:42:13.836Z,4.57
2022-07-31T10:43:17.210Z,4.43
2022-07-31T10:44:20.707Z,5.00
2022-07-31T10:45:24.085Z,5.00
2022-07-31T10:46:27.381Z,5.00
2022-07-31T10:47:30.860Z,5.00
2022-07-31T10:48:34.249Z,5.00
2022-07-31T10:49:37.790Z,4.14
2022-07-31T10:50:41.018Z,3.43
2022-07-31T10:51:44.514Z,4.00
2022-07-31T10:52:47.643Z,3.00
2022-07-31T10:53:54.573Z,3.67
2022-07-31T10:54:54.926Z,4.12
2022-07-31T10:55:58.255Z,4.43
2022-07-31T10:57:02.015Z,4.71
2022-07-31T10:58:05.312Z,4.37
2022-07-31T10:59:11.042Z,4.00
2022-07-31T11:00:12.828Z,4.00
2022-07-31T11:01:17.541Z,3.67
2022-07-31T11:02:20.318Z,3.50
2022-07-31T11:03:23.603Z,4.00
2022-07-31T11:04:26.788Z,3.86
2022-07-31T11:05:29.924Z,5.00
2022-07-31T11:06:32.981Z,4.57
2022-07-31T11:07:36.051Z,4.00
2022-07-31T11:08:39.208Z,4.00
2022-07-31T11:09:50.711Z,3.29
2022-07-31T11:10:46.699Z,3.50
2022-07-31T11:11:49.856Z,4.14
2022-07-31T11:12:53.058Z,4.43
2022-07-31T11:13:56.238Z,3.83
2022-07-31T11:14:59.380Z,3.00
2022-07-31T11:16:02.498Z,3.86
2022-07-31T11:17:07.345Z,4.50
2022-07-31T11:18:22.743Z,3.25
2022-07-31T11:19:15.015Z,3.25
2022-07-31T11:20:18.082Z,4.14
2022-07-31T11:21:38.188Z,4.17
2022-07-31T11:22:30.561Z,4.50
2022-07-31T11:23:29.756Z,4.50
2022-07-31T11:24:32.986Z,4.00
2022-07-31T11:25:36.165Z,4.43
2022-07-31T11:26:42.120Z,5.00
2022-07-31T11:27:43.755Z,5.75
2022-07-31T11:28:46.886Z,5.86
2022-07-31T11:30:00.249Z,5.00
2022-07-31T11:30:54.230Z,5.50
2022-07-31T11:31:57.299Z,5.14
2022-07-31T11:33:00.386Z,4.00
2022-07-31T11:34:03.661Z,4.86
2022-07-31T11:35:07.876Z,4.00
2022-07-31T11:36:11.025Z,4.00
2022-07-31T11:37:14.328Z,4.00
2022-07-31T11:38:18.657Z,4.25
2022-07-31T11:39:25.850Z,3.50
2022-07-31T11:40:28.120Z,3.00
2022-07-31T11:41:39.138Z,3.00
2022-07-31T11:42:36.339Z,3.37
2022-07-31T11:43:39.523Z,3.86
2022-07-31T11:44:42.540Z,3.14
2022-07-31T11:45:45.615Z,3.33
2022-07-31T11:46:48.807Z,3.00
2022-07-31T11:48:11.630Z,3.43
2022-07-31T11:48:56.413Z,4.00
2022-07-31T11:49:59.704Z,4.00
2022-07-31T11:51:02.866Z,4.29
2022-07-31T11:52:05.748Z,4.00
2022-07-31T11:53:08.827Z,3.17
2022-07-31T11:54:12.099Z,3.57
2022-07-31T11:55:15.280Z,3.57
2022-07-31T11:56:18.491Z,4.00
2022-07-31T11:57:21.528Z,3.00
2022-07-31T11:58:24.726Z,3.00
2022-07-31T11:59:45.808Z,3.43
2022-07-31T12:00:32.169Z,3.50
2022-07-31T12:01:35.200Z,3.00
2022-07-31T12:02:38.419Z,3.33
2022-07-31T12:03:41.567Z,3.57
2022-07-31T12:04:44.638Z,3.43
2022-07-31T12:05:47.918Z,3.29
2022-07-31T12:06:50.961Z,3.00
2022-07-31T12:07:54.083Z,3.00
2022-07-31T12:08:57.217Z,3.00
2022-07-31T12:10:03.498Z,3.00
2022-07-31T12:11:04.533Z,3.50
2022-07-31T12:12:07.636Z,3.17
2022-07-31T12:13:14.085Z,3.00
2022-07-31T12:14:15.132Z,3.12
2022-07-31T12:15:18.408Z,3.00
2022-07-31T12:16:21.588Z,2.57
2022-07-31T12:17:24.874Z,2.29
2022-07-31T12:18:28.046Z,3.00
2022-07-31T12:19:31.432Z,2.57
2022-07-31T12:20:36.497Z,2.87
2022-07-31T12:21:40.047Z,3.00
2022-07-31T12:22:43.128Z,3.29
2022-07-31T12:23:46.452Z,3.00
2022-07-31T12:24:49.606Z,3.43
2022-07-31T12:25:52.782Z,3.17
2022-07-31T12:26:55.866Z,2.83
2022-07-31T12:27:59.078Z,3.57
2022-07-31T12:29:02.110Z,3.43
2022-07-31T12:30:05.297Z,3.67
2022-07-31T12:31:08.481Z,3.00
2022-07-31T12:32:11.681Z,3.00
2022-07-31T12:33:14.839Z,3.00
2022-07-31T12:34:18.128Z,2.43
2022-07-31T12:35:21.411Z,3.43
2022-07-31T12:36:24.473Z,3.57
2022-07-31T12:37:27.569Z,3.00
2022-07-31T12:38:44.850Z,3.00
2022-07-31T12:39:47.730Z,3.00
2022-07-31T12:40:39.223Z,2.75
2022-07-31T12:41:42.357Z,2.29
2022-07-31T12:42:45.524Z,2.00
2022-07-31T12:43:52.365Z,2.33
2022-07-31T12:44:53.023Z,2.87
2022-07-31T12:45:56.219Z,3.00
2022-07-31T12:46:59.481Z,2.57
2022-07-31T12:48:02.769Z,2.00
2022-07-31T12:49:06.011Z,2.71
2022-07-31T12:50:09.230Z,3.00
2022-07-31T12:51:12.414Z,3.00
2022-07-31T12:52:15.577Z,2.57
2022-07-31T12:53:18.778Z,2.33
2022-07-31T12:54:22.068Z,3.00
2022-07-31T12:55:25.198Z,3.00
2022-07-31T12:56:28.323Z,3.00
2022-07-31T12:57:31.406Z,2.57
2022-07-31T12:58:34.606Z,2.33
2022-07-31T12:59:37.770Z,3.00
2022-07-31T13:00:40.950Z,2.57
2022-07-31T13:01:44.183Z,2.86
2022-07-31T13:02:47.418Z,3.14
2022-07-31T13:03:50.596Z,2.00
2022-07-31T13:04:53.987Z,2.00
2022-07-31T13:05:57.165Z,2.86
2022-07-31T13:07:00.346Z,3.00
2022-07-31T13:08:03.738Z,2.71
2022-07-31T13:09:07.021Z,3.00
2022-07-31T13:10:20.494Z,2.57
2022-07-31T13:11:14.412Z,2.25
2022-07-31T13:12:17.584Z,2.43
2022-07-31T13:13:20.767Z,2.57
2022-07-31T13:14:23.958Z,2.00
2022-07-31T13:15:27.121Z,2.86
2022-07-31T13:16:30.166Z,2.57
2022-07-31T13:17:33.291Z,2.43
2022-07-31T13:18:36.369Z,2.67
2022-07-31T13:19:39.654Z,2.00
2022-07-31T13:20:42.844Z,2.57
2022-07-31T13:21:49.391Z,2.14
2022-07-31T13:22:50.437Z,3.25
2022-07-31T13:23:56.017Z,3.00
2022-07-31T13:24:57.820Z,2.50
2022-07-31T13:26:00.999Z,2.00
2022-07-31T13:27:04.459Z,2.86
2022-07-31T13:28:07.884Z,3.57
2022-07-31T13:29:11.169Z,2.71
2022-07-31T13:30:14.651Z,2.57
2022-07-31T13:31:18.033Z,2.86
2022-07-31T13:32:21.418Z,4.14
2022-07-31T13:33:25.856Z,2.87
2022-07-31T13:34:29.215Z,2.57
2022-07-31T13:35:32.404Z,2.00
2022-07-31T13:36:39.433Z,2.00
2022-07-31T13:37:40.400Z,3.00
2022-07-31T13:38:43.889Z,3.00
2022-07-31T13:39:46.952Z,2.86
2022-07-31T13:40:50.049Z,2.00
2022-07-31T13:41:53.411Z,2.83
2022-07-31T13:42:56.512Z,2.57
2022-07-31T13:44:02.870Z,2.29
2022-07-31T13:45:08.373Z,3.00
2022-07-31T13:46:10.822Z,2.62
2022-07-31T13:47:14.248Z,2.86
2022-07-31T13:48:17.655Z,3.43
2022-07-31T13:49:21.193Z,2.50
2022-07-31T13:50:24.622Z,2.43
2022-07-31T13:51:28.661Z,3.00
2022-07-31T13:52:32.680Z,3.50
2022-07-31T13:53:36.012Z,3.86
2022-07-31T13:54:39.197Z,3.43
2022-07-31T13:55:44.288Z,3.14
2022-07-31T13:56:46.687Z,3.00
2022-07-31T13:57:49.868Z,3.67
2022-07-31T13:58:52.999Z,3.57
2022-07-31T13:59:55.975Z,3.43
2022-07-31T14:01:03.986Z,3.17
2022-07-31T14:02:05.707Z,2.89
2022-07-31T14:03:07.980Z,2.00
2022-07-31T14:04:19.185Z,2.00
2022-07-31T14:05:15.514Z,2.25